메인 페이지
METAR-TAF:

METAR-TAF

공항 :

McAlester, 오클라호마, 미국

위도: 34-52-56N, 경도: 095-46-59W, 고도: 234m

현재 날씨관측

예보는 36분 전, 16:53시(UTC)에 발표되었습니다.
북북동10kt
온도 17°C
습도 48%
기압 1030 hPa
시정: 16.1km
고도 10000ft 상공 구름 조금

METAR: KMLC 171653Z AUTO 02010KT 10SM FEW100 17/06 A3042 RMK AO2 SLP297 T01720056

시각: 12:29 (17:29 UTC)

예보

예보는 6 시간 5분 전, 11:24시(UTC)에 발표되었습니다.
예보 대상 시간: 17일 12시부터 18일 12시까지 (UTC)
북북동5kt
시정: 10km
고도 10000ft 상공 구름 보통
고도 25000ft 상공 구름 많음

TAF: KMLC 171124Z 1712/1812 02005KT P6SM SCT100 BKN250

4,000개 이상의 공항 관측 자료 및 예보 (METAR 및 TAF 보고).

지도상에서 검색 가능한 기상관측소가 노란 점과 빨간 점으로 표시되어 있습니다.

기상관측소 명을 보려면 표시 위로 마우스를 이동하세요.

날씨 관측과 예보를 보려면 클릭하세요.

지도 변경 : 확대하려면 엑스 표시가 있는 녹색 버튼, 축소하려면 빼기 표시가 있는 녹색 버튼, 다음 페이지의 지도를 보려면 녹색 화살표를 클릭하세요.


METAR-TAF: